createdAt,value
2018-12-02T00:01:32.906Z,4.20
2018-12-02T00:06:23.856Z,4.20
2018-12-02T00:11:14.867Z,4.20
2018-12-02T00:16:05.820Z,4.20
2018-12-02T00:20:57.470Z,4.20
2018-12-02T00:25:48.369Z,4.20
2018-12-02T00:30:40.024Z,4.30
2018-12-02T00:35:30.919Z,4.20
2018-12-02T00:40:22.558Z,4.30
2018-12-02T00:45:14.246Z,4.30
2018-12-02T00:50:05.142Z,4.30
2018-12-02T00:54:56.047Z,4.40
2018-12-02T00:59:47.011Z,4.40
2018-12-02T01:04:37.920Z,4.40
2018-12-02T01:09:28.854Z,4.40
2018-12-02T01:14:19.901Z,4.40
2018-12-02T01:19:10.797Z,4.50
2018-12-02T01:24:01.705Z,4.40
2018-12-02T01:28:52.612Z,4.50
2018-12-02T01:33:43.529Z,4.50
2018-12-02T01:38:34.440Z,4.50
2018-12-02T01:43:25.338Z,4.50
2018-12-02T01:48:16.318Z,4.50
2018-12-02T01:53:07.214Z,4.50
2018-12-02T01:57:58.103Z,4.50
2018-12-02T02:02:48.993Z,4.50
2018-12-02T02:07:40.666Z,4.60
2018-12-02T02:12:31.559Z,4.60
2018-12-02T02:17:23.186Z,4.60
2018-12-02T02:22:14.819Z,4.60
2018-12-02T02:27:05.730Z,4.60
2018-12-02T02:31:56.648Z,4.70
2018-12-02T02:36:48.310Z,4.70
2018-12-02T02:41:39.210Z,4.70
2018-12-02T02:46:30.855Z,4.70
2018-12-02T02:51:22.535Z,4.70
2018-12-02T02:56:13.430Z,4.70
2018-12-02T03:01:04.322Z,4.70
2018-12-02T03:05:56.034Z,4.70
2018-12-02T03:10:46.937Z,4.70
2018-12-02T03:15:37.838Z,4.80
2018-12-02T03:20:28.738Z,4.80
2018-12-02T03:25:19.630Z,4.80
2018-12-02T03:30:11.271Z,4.80
2018-12-02T03:35:02.911Z,4.90
2018-12-02T03:39:54.596Z,4.90
2018-12-02T03:44:45.501Z,4.90
2018-12-02T03:49:36.384Z,4.90
2018-12-02T03:54:28.051Z,5.00
2018-12-02T03:59:18.950Z,5.00
2018-12-02T04:04:09.840Z,5.00
2018-12-02T04:09:00.831Z,5.00
2018-12-02T04:13:51.723Z,5.10
2018-12-02T04:18:42.651Z,5.10
2018-12-02T04:23:33.538Z,5.10
2018-12-02T04:28:24.438Z,5.20
2018-12-02T04:33:16.747Z,5.20
2018-12-02T04:38:07.635Z,5.20
2018-12-02T04:42:58.526Z,5.20
2018-12-02T04:47:50.160Z,5.20
2018-12-02T04:52:41.794Z,5.20
2018-12-02T04:57:33.432Z,5.20
2018-12-02T05:02:25.059Z,5.20
2018-12-02T05:07:15.947Z,5.10
2018-12-02T05:12:06.843Z,5.10
2018-12-02T05:16:57.730Z,5.10
2018-12-02T05:21:49.363Z,5.10
2018-12-02T05:26:40.994Z,5.10
2018-12-02T05:31:32.637Z,5.10
2018-12-02T05:36:24.375Z,5.10
2018-12-02T05:41:16.039Z,5.10
2018-12-02T05:46:06.939Z,5.00
2018-12-02T05:50:57.846Z,5.00
2018-12-02T05:55:49.491Z,5.00
2018-12-02T06:00:41.138Z,4.90
2018-12-02T06:05:32.044Z,4.90
2018-12-02T06:10:23.678Z,4.90
2018-12-02T06:15:15.322Z,4.90
2018-12-02T06:20:06.219Z,4.80
2018-12-02T06:24:57.858Z,4.80
2018-12-02T06:29:49.498Z,4.80
2018-12-02T06:34:41.155Z,4.80
2018-12-02T06:39:32.055Z,4.80
2018-12-02T06:44:22.958Z,4.80
2018-12-02T06:49:14.747Z,4.80
2018-12-02T06:54:05.694Z,4.80
2018-12-02T06:58:56.591Z,4.80
2018-12-02T07:03:47.487Z,4.80
2018-12-02T07:08:38.442Z,4.80
2018-12-02T07:13:29.341Z,4.80
2018-12-02T07:18:20.231Z,4.80
2018-12-02T07:23:11.183Z,4.80
2018-12-02T07:28:02.117Z,4.90
2018-12-02T07:32:53.014Z,4.90
2018-12-02T07:37:45.555Z,4.90
2018-12-02T07:42:36.446Z,4.90
2018-12-02T07:47:28.073Z,5.00
2018-12-02T07:52:19.707Z,5.00
2018-12-02T07:57:12.021Z,5.00
2018-12-02T08:02:02.335Z,5.00
2018-12-02T08:06:53.242Z,5.00
2018-12-02T08:11:44.138Z,5.00
2018-12-02T08:16:35.081Z,5.10
2018-12-02T08:21:25.973Z,5.10
2018-12-02T08:26:16.918Z,5.10
2018-12-02T08:31:07.820Z,5.10
2018-12-02T08:35:58.810Z,5.20
2018-12-02T08:40:50.481Z,5.20
2018-12-02T08:45:41.484Z,5.20
2018-12-02T08:50:32.381Z,5.30
2018-12-02T08:55:24.087Z,5.40
2018-12-02T09:00:14.983Z,5.30
2018-12-02T09:05:05.906Z,5.40
2018-12-02T09:09:59.623Z,5.40
2018-12-02T09:14:47.738Z,5.50
2018-12-02T09:19:39.278Z,5.60
2018-12-02T09:24:30.206Z,5.60
2018-12-02T09:29:21.150Z,5.70
2018-12-02T09:34:12.151Z,5.70
2018-12-02T09:39:03.054Z,5.80
2018-12-02T09:43:54.044Z,5.80
2018-12-02T09:48:44.979Z,5.90
2018-12-02T09:53:35.870Z,5.90
2018-12-02T09:58:27.550Z,6.00
2018-12-02T10:03:18.455Z,6.00
2018-12-02T10:08:09.410Z,6.10
2018-12-02T10:13:01.088Z,6.20
2018-12-02T10:17:52.054Z,6.20
2018-12-02T10:22:42.946Z,6.30
2018-12-02T10:27:33.837Z,6.50
2018-12-02T10:32:25.515Z,6.60
2018-12-02T10:37:16.448Z,6.60
2018-12-02T10:42:07.346Z,6.70
2018-12-02T10:46:58.571Z,6.80
2018-12-02T10:51:49.344Z,6.90
2018-12-02T10:56:40.975Z,7.00
2018-12-02T11:01:32.673Z,7.10
2018-12-02T11:06:24.419Z,7.10
2018-12-02T11:11:15.326Z,7.10
2018-12-02T11:16:06.214Z,7.20
2018-12-02T11:20:57.102Z,7.20
2018-12-02T11:25:48.738Z,7.30
2018-12-02T11:30:40.406Z,7.40
2018-12-02T11:35:31.290Z,7.30
2018-12-02T11:45:19.610Z,7.40
2018-12-02T11:50:10.554Z,7.50
2018-12-02T11:55:01.451Z,7.50
2018-12-02T11:59:52.338Z,7.60
2018-12-02T12:04:43.965Z,7.60
2018-12-02T12:09:34.893Z,7.60
2018-12-02T12:14:26.605Z,7.70
2018-12-02T12:19:17.498Z,7.70
2018-12-02T12:24:08.441Z,7.70
2018-12-02T12:28:59.340Z,7.70
2018-12-02T12:33:50.247Z,7.80
2018-12-02T12:38:41.155Z,7.80
2018-12-02T12:43:32.126Z,7.80
2018-12-02T12:48:23.125Z,7.80
2018-12-02T12:53:14.050Z,7.80
2018-12-02T12:58:04.954Z,7.80
2018-12-02T13:02:55.866Z,7.80
2018-12-02T13:07:46.783Z,7.80
2018-12-02T13:12:37.678Z,7.80
2018-12-02T13:17:29.355Z,7.80
2018-12-02T13:22:20.258Z,7.70
2018-12-02T13:27:11.296Z,7.70
2018-12-02T13:32:02.224Z,7.70
2018-12-02T13:36:53.971Z,7.70
2018-12-02T13:41:44.928Z,7.70
2018-12-02T13:46:35.819Z,7.70
2018-12-02T13:51:27.510Z,7.60
2018-12-02T13:56:22.961Z,7.60
2018-12-02T14:01:09.466Z,7.60
2018-12-02T14:06:00.383Z,7.60
2018-12-02T14:16:10.836Z,7.60
2018-12-02T14:21:02.472Z,7.60
2018-12-02T14:25:54.111Z,7.50
2018-12-02T14:30:45.810Z,7.50
2018-12-02T14:35:36.719Z,7.50
2018-12-02T14:40:27.623Z,7.50
2018-12-02T14:45:18.532Z,7.50
2018-12-02T14:50:09.481Z,7.50
2018-12-02T14:55:00.425Z,7.40
2018-12-02T14:59:51.373Z,7.40
2018-12-02T15:04:42.336Z,7.40
2018-12-02T15:09:33.239Z,7.40
2018-12-02T15:14:24.167Z,7.40
2018-12-02T15:19:15.071Z,7.40
2018-12-02T15:24:05.971Z,7.30
2018-12-02T15:28:56.935Z,7.30
2018-12-02T15:33:47.946Z,7.30
2018-12-02T15:38:38.878Z,7.30
2018-12-02T15:43:29.918Z,7.30
2018-12-02T15:48:21.574Z,7.30
2018-12-02T15:53:12.690Z,7.20
2018-12-02T15:58:04.338Z,7.30
2018-12-02T16:02:55.302Z,7.20
2018-12-02T16:07:46.223Z,7.20
2018-12-02T16:12:37.131Z,7.20
2018-12-02T16:17:28.047Z,7.20
2018-12-02T16:22:18.946Z,7.20
2018-12-02T16:27:10.055Z,7.20
2018-12-02T16:32:01.015Z,7.20
2018-12-02T16:36:51.907Z,7.30
2018-12-02T16:41:43.034Z,7.30
2018-12-02T16:46:33.988Z,7.30
2018-12-02T16:51:24.890Z,7.30
2018-12-02T16:56:15.789Z,7.30
2018-12-02T17:01:06.727Z,7.30
2018-12-02T17:05:57.658Z,7.30
2018-12-02T17:10:50.386Z,7.40
2018-12-02T17:15:39.593Z,7.40
2018-12-02T17:20:30.506Z,7.40
2018-12-02T17:25:21.391Z,7.40
2018-12-02T17:30:12.289Z,7.50
2018-12-02T17:35:03.996Z,7.50
2018-12-02T17:39:54.898Z,7.50
2018-12-02T17:44:45.822Z,7.50
2018-12-02T17:49:36.727Z,7.50
2018-12-02T17:54:27.674Z,7.60
2018-12-02T17:59:18.567Z,7.60
2018-12-02T18:04:09.469Z,7.60
2018-12-02T18:09:00.418Z,7.70
2018-12-02T18:13:51.342Z,7.70
2018-12-02T18:18:42.238Z,7.80
2018-12-02T18:23:33.212Z,7.80
2018-12-02T18:28:24.922Z,7.90
2018-12-02T18:33:15.927Z,7.90
2018-12-02T18:38:06.819Z,8.00
2018-12-02T18:42:57.738Z,8.00
2018-12-02T18:47:48.686Z,8.00
2018-12-02T18:52:39.594Z,8.10
2018-12-02T18:57:30.534Z,8.10
2018-12-02T19:02:21.442Z,8.10
2018-12-02T19:07:12.362Z,8.20
2018-12-02T19:12:03.274Z,8.20
2018-12-02T19:16:54.278Z,8.20
2018-12-02T19:21:45.180Z,8.30
2018-12-02T19:26:36.075Z,8.30
2018-12-02T19:31:27.773Z,8.40
2018-12-02T19:36:18.675Z,8.40
2018-12-02T19:41:09.567Z,8.40
2018-12-02T19:46:00.517Z,8.50
2018-12-02T19:50:51.420Z,8.60
2018-12-02T19:55:42.314Z,8.60
2018-12-02T20:00:33.990Z,8.70
2018-12-02T20:05:24.935Z,8.60
2018-12-02T20:10:15.835Z,8.70
2018-12-02T20:15:06.762Z,8.70
2018-12-02T20:19:57.664Z,8.80
2018-12-02T20:24:48.560Z,8.80
2018-12-02T20:29:39.782Z,8.90
2018-12-02T20:34:30.747Z,8.90
2018-12-02T20:39:21.648Z,8.90
2018-12-02T20:44:13.467Z,9.00
2018-12-02T20:49:04.422Z,9.00
2018-12-02T20:53:55.342Z,9.00
2018-12-02T20:58:46.438Z,9.00
2018-12-02T21:03:38.279Z,9.00
2018-12-02T21:08:29.633Z,9.00
2018-12-02T21:13:20.655Z,9.00
2018-12-02T21:18:11.588Z,9.00
2018-12-02T21:23:02.590Z,9.00
2018-12-02T21:27:53.513Z,9.00
2018-12-02T21:32:44.418Z,9.00
2018-12-02T21:37:35.348Z,9.00
2018-12-02T21:42:26.262Z,9.00
2018-12-02T21:47:21.142Z,9.10
2018-12-02T21:52:08.850Z,9.10
2018-12-02T21:57:00.499Z,9.10
2018-12-02T22:01:52.191Z,9.10
2018-12-02T22:06:43.175Z,9.10
2018-12-02T22:11:34.133Z,9.20
2018-12-02T22:16:25.034Z,9.20
2018-12-02T22:21:15.982Z,9.20
2018-12-02T22:26:06.893Z,9.20
2018-12-02T22:30:57.794Z,9.10
2018-12-02T22:35:48.694Z,9.10
2018-12-02T22:40:39.581Z,9.10
2018-12-02T22:45:31.219Z,9.10
2018-12-02T22:50:22.854Z,9.10
2018-12-02T22:55:14.510Z,9.00
2018-12-02T23:00:05.446Z,9.00
2018-12-02T23:04:56.379Z,9.00
2018-12-02T23:09:47.270Z,8.90
2018-12-02T23:14:38.218Z,8.90
2018-12-02T23:19:29.850Z,8.90
2018-12-02T23:24:20.755Z,8.90
2018-12-02T23:29:11.646Z,8.90
2018-12-02T23:34:02.615Z,8.90
2018-12-02T23:38:53.519Z,8.90
2018-12-02T23:43:44.414Z,8.90
2018-12-02T23:48:35.382Z,8.90
2018-12-02T23:53:26.291Z,9.00
2018-12-02T23:58:17.196Z,9.00
